LFQQ 221130Z AUTO 22016KT 9999 OVC018 09/05 Q1022 TEMPO 22020G32KT 3000 RA BKN012

ElémentsDécodage
LFQQ Station météo située sur l'aérodrome de LILLE Lesquin
221130Z émis le 22 du mois à 11h30 UTC
AUTO Bulletin édité par un automate
22016KT vent du 220°, 16 noeuds
9999 visibilité horizontale supérieure à 10 Km
OVC018 couverture nuageuse totale (8/8) à 1800 pieds
09/05 température 09°C, point de rosée 05°C
 soit une humidité relative de 76%
Q1022 la pression au niveau de la mer (QNH) est de 1022 hPa
TEMPO fluctuation temporaire prévue
22020G32KT vent du 220°, moyenne: 20 noeuds, avec rafales à 32 noeuds
3000 visibilité horizontale de 3000 mètres
RA pluie
BKN012 nuages morcelés (5/8 à 7/8) à 1200 pieds